createdAt,value
2023-01-12T00:01:17.869Z,5.41
2023-01-12T00:04:23.682Z,5.50
2023-01-12T00:07:29.672Z,5.54
2023-01-12T00:10:35.146Z,5.46
2023-01-12T00:13:40.295Z,5.39
2023-01-12T00:16:45.768Z,5.36
2023-01-12T00:19:51.745Z,5.31
2023-01-12T00:22:58.623Z,5.40
2023-01-12T00:26:04.462Z,5.32
2023-01-12T00:29:09.860Z,5.21
2023-01-12T00:32:18.989Z,5.29
2023-01-12T00:35:24.621Z,5.20
2023-01-12T00:38:30.544Z,5.25
2023-01-12T00:41:56.622Z,5.26
2023-01-12T00:45:20.610Z,5.20
2023-01-12T00:48:26.150Z,5.21
2023-01-12T00:51:31.584Z,5.28
2023-01-12T00:54:37.196Z,5.32
2023-01-12T00:57:43.295Z,5.23
2023-01-12T01:00:48.476Z,5.26
2023-01-12T01:03:54.989Z,5.40
2023-01-12T01:07:01.285Z,5.30
2023-01-12T01:10:07.962Z,5.44
2023-01-12T01:13:13.595Z,5.53
2023-01-12T01:16:19.378Z,5.32
2023-01-12T01:19:25.048Z,5.40
2023-01-12T01:22:30.897Z,5.47
2023-01-12T01:25:36.208Z,5.41
2023-01-12T01:28:43.131Z,5.36
2023-01-12T01:31:48.552Z,5.14
2023-01-12T01:34:54.232Z,5.12
2023-01-12T01:37:59.702Z,5.06
2023-01-12T01:41:07.262Z,4.96
2023-01-12T01:44:31.839Z,4.93
2023-01-12T01:47:43.249Z,4.81
2023-01-12T01:50:57.768Z,4.71
2023-01-12T01:54:03.838Z,4.71
2023-01-12T01:57:12.375Z,4.51
2023-01-12T02:00:19.927Z,4.44
2023-01-12T02:03:26.950Z,4.38
2023-01-12T02:06:32.552Z,4.67
2023-01-12T02:09:37.903Z,4.88
2023-01-12T02:13:02.107Z,4.94
2023-01-12T02:16:30.629Z,4.91
2023-01-12T02:20:11.990Z,4.91
2023-01-12T02:23:22.936Z,4.94
2023-01-12T02:27:06.946Z,4.90
2023-01-12T02:30:26.843Z,4.76
2023-01-12T02:33:50.094Z,4.72
2023-01-12T02:37:04.527Z,4.48
2023-01-12T02:40:17.418Z,4.58
2023-01-12T02:43:31.335Z,4.64
2023-01-12T02:46:40.803Z,4.56
2023-01-12T02:49:51.786Z,4.48
2023-01-12T02:53:04.828Z,4.44
2023-01-12T02:56:13.938Z,4.40
2023-01-12T02:59:27.530Z,4.34
2023-01-12T03:02:34.296Z,4.21
2023-01-12T03:05:43.217Z,4.15
2023-01-12T03:08:49.531Z,4.03
2023-01-12T03:12:06.038Z,4.11
2023-01-12T03:15:15.536Z,4.18
2023-01-12T03:18:31.881Z,4.07
2023-01-12T03:21:41.147Z,3.92
2023-01-12T03:24:51.046Z,4.01
2023-01-12T03:28:00.206Z,3.83
2023-01-12T03:31:12.644Z,4.00
2023-01-12T03:34:18.366Z,3.98
2023-01-12T03:38:01.051Z,4.01
2023-01-12T03:41:09.559Z,4.08
2023-01-12T03:44:24.616Z,4.20
2023-01-12T03:47:31.636Z,4.21
2023-01-12T03:51:02.804Z,3.79
2023-01-12T03:54:11.616Z,3.99
2023-01-12T03:57:17.981Z,3.82
2023-01-12T04:00:27.692Z,3.96
2023-01-12T04:03:33.507Z,4.13
2023-01-12T04:06:39.045Z,4.03
2023-01-12T04:09:44.071Z,3.83
2023-01-12T04:12:49.564Z,3.78
2023-01-12T04:15:55.008Z,3.81
2023-01-12T04:19:00.378Z,3.91
2023-01-12T04:22:25.026Z,3.93
2023-01-12T04:25:30.888Z,3.86
2023-01-12T04:28:36.831Z,3.96
2023-01-12T04:31:42.455Z,3.92
2023-01-12T04:34:48.022Z,3.85
2023-01-12T04:37:54.383Z,3.81
2023-01-12T04:41:00.131Z,3.76
2023-01-12T04:44:05.625Z,3.73
2023-01-12T04:47:11.226Z,3.90
2023-01-12T04:50:16.911Z,3.78
2023-01-12T04:53:24.934Z,3.87
2023-01-12T04:56:31.366Z,3.87
2023-01-12T04:59:36.882Z,3.91
2023-01-12T05:02:42.891Z,3.93
2023-01-12T05:05:48.462Z,4.01
2023-01-12T05:09:12.779Z,4.06
2023-01-12T05:12:18.373Z,4.06
2023-01-12T05:15:24.412Z,3.94
2023-01-12T05:18:29.990Z,3.73
2023-01-12T05:21:35.425Z,3.77
2023-01-12T05:24:40.968Z,3.68
2023-01-12T05:27:46.525Z,3.61
2023-01-12T05:30:51.967Z,3.54
2023-01-12T05:33:57.775Z,3.64
2023-01-12T05:37:03.355Z,3.51
2023-01-12T05:40:09.593Z,3.50
2023-01-12T05:43:33.917Z,3.41
2023-01-12T05:46:44.551Z,3.46
2023-01-12T05:49:49.888Z,3.40
2023-01-12T05:52:55.319Z,3.36
2023-01-12T05:56:08.729Z,3.34
2023-01-12T05:59:14.327Z,3.22
2023-01-12T06:02:21.783Z,3.17
2023-01-12T06:05:27.805Z,3.13
2023-01-12T06:08:33.370Z,3.09
2023-01-12T06:11:57.814Z,3.09
2023-01-12T06:15:03.125Z,3.29
2023-01-12T06:18:08.889Z,3.23
2023-01-12T06:21:14.609Z,3.20
2023-01-12T06:24:20.046Z,3.12
2023-01-12T06:27:25.977Z,3.06
2023-01-12T06:30:30.965Z,3.19
2023-01-12T06:33:36.571Z,3.14
2023-01-12T06:36:42.169Z,3.05
2023-01-12T06:39:47.778Z,3.20
2023-01-12T06:42:53.370Z,3.27
2023-01-12T06:45:59.536Z,3.18
2023-01-12T06:49:04.978Z,3.07
2023-01-12T06:52:10.996Z,3.25
2023-01-12T06:55:15.952Z,3.12
2023-01-12T06:58:20.898Z,3.35
2023-01-12T07:01:27.721Z,3.05
2023-01-12T07:04:33.149Z,2.65
2023-01-12T07:07:40.206Z,2.79
2023-01-12T07:10:46.784Z,2.98
2023-01-12T07:13:52.424Z,3.02
2023-01-12T07:16:58.272Z,3.17
2023-01-12T07:20:03.713Z,3.36
2023-01-12T07:23:09.204Z,3.50
2023-01-12T07:26:14.650Z,3.41
2023-01-12T07:29:20.077Z,3.42
2023-01-12T07:32:27.364Z,3.66
2023-01-12T07:35:32.432Z,3.76
2023-01-12T07:38:38.523Z,3.85
2023-01-12T07:42:03.082Z,3.93
2023-01-12T07:45:09.124Z,3.92
2023-01-12T07:48:16.591Z,3.91
2023-01-12T07:51:22.247Z,3.93
2023-01-12T07:54:27.875Z,4.03
2023-01-12T07:57:33.260Z,3.99
2023-01-12T08:00:38.822Z,3.91
2023-01-12T08:03:44.017Z,3.94
2023-01-12T08:06:49.280Z,3.97
2023-01-12T08:09:54.803Z,3.99
2023-01-12T08:13:00.264Z,3.90
2023-01-12T08:16:12.850Z,3.97
2023-01-12T08:19:25.287Z,4.06
2023-01-12T08:22:38.182Z,4.08
2023-01-12T08:25:54.879Z,4.07
2023-01-12T08:29:14.644Z,4.15
2023-01-12T08:32:20.948Z,4.20
2023-01-12T08:35:29.623Z,4.24
2023-01-12T08:38:35.650Z,4.30
2023-01-12T08:41:42.799Z,4.09
2023-01-12T08:44:48.921Z,4.17
2023-01-12T08:47:54.247Z,4.27
2023-01-12T08:51:00.079Z,4.57
2023-01-12T08:54:07.466Z,4.56
2023-01-12T08:57:12.994Z,4.62
2023-01-12T09:00:19.817Z,4.71
2023-01-12T09:03:25.107Z,4.73
2023-01-12T09:06:32.789Z,4.67
2023-01-12T09:09:38.707Z,4.73
2023-01-12T09:12:44.939Z,4.65
2023-01-12T09:16:01.363Z,4.91
2023-01-12T09:19:16.911Z,5.05
2023-01-12T09:22:23.444Z,5.12
2023-01-12T09:25:28.845Z,5.19
2023-01-12T09:28:35.302Z,5.33
2023-01-12T09:31:43.909Z,5.40
2023-01-12T09:34:50.019Z,5.52
2023-01-12T09:37:55.715Z,5.55
2023-01-12T09:41:09.115Z,5.55
2023-01-12T09:44:48.357Z,5.73
2023-01-12T09:48:01.536Z,5.82
2023-01-12T09:51:19.057Z,5.79
2023-01-12T09:54:24.675Z,5.95
2023-01-12T09:57:38.927Z,5.92
2023-01-12T10:00:54.818Z,6.16
2023-01-12T10:04:01.917Z,6.52
2023-01-12T10:07:15.034Z,6.68
2023-01-12T10:10:20.615Z,6.52
2023-01-12T10:13:33.786Z,6.62
2023-01-12T10:17:03.110Z,6.73
2023-01-12T10:20:08.943Z,6.70
2023-01-12T10:23:24.889Z,6.70
2023-01-12T10:26:42.335Z,6.66
2023-01-12T10:29:48.698Z,6.65
2023-01-12T10:32:54.233Z,6.84
2023-01-12T10:36:08.968Z,7.01
2023-01-12T10:39:26.900Z,7.28
2023-01-12T10:42:50.584Z,7.28
2023-01-12T10:46:10.790Z,7.57
2023-01-12T10:49:22.447Z,7.60
2023-01-12T10:52:40.318Z,7.37
2023-01-12T10:55:47.704Z,7.47
2023-01-12T10:59:04.097Z,7.63
2023-01-12T11:02:09.714Z,7.61
2023-01-12T11:05:38.729Z,7.61
2023-01-12T11:08:44.491Z,7.70
2023-01-12T11:11:58.239Z,7.85
2023-01-12T11:15:23.739Z,8.00
2023-01-12T11:18:46.953Z,8.10
2023-01-12T11:22:01.684Z,8.23
2023-01-12T11:25:21.028Z,8.35
2023-01-12T11:28:45.605Z,8.37
2023-01-12T11:31:55.494Z,8.37
2023-01-12T11:35:06.383Z,8.43
2023-01-12T11:38:18.023Z,8.51
2023-01-12T11:41:35.583Z,8.51
2023-01-12T11:44:48.028Z,8.58
2023-01-12T11:48:00.725Z,8.58
2023-01-12T11:51:06.026Z,8.55
2023-01-12T11:54:17.746Z,8.59
2023-01-12T11:57:32.466Z,8.51
2023-01-12T12:00:53.847Z,8.38
2023-01-12T12:04:04.627Z,8.36
2023-01-12T12:07:16.427Z,8.29
2023-01-12T12:10:53.946Z,8.29
2023-01-12T12:14:21.507Z,8.23
2023-01-12T12:18:06.091Z,8.29
2023-01-12T12:21:30.232Z,8.29
2023-01-12T12:25:03.847Z,8.39
2023-01-12T12:28:43.849Z,8.39
2023-01-12T12:31:59.163Z,8.36
2023-01-12T12:35:21.152Z,8.40
2023-01-12T12:39:07.720Z,8.38
2023-01-12T12:42:40.730Z,8.46
2023-01-12T12:46:13.844Z,8.51
2023-01-12T12:49:26.411Z,8.61
2023-01-12T12:52:36.298Z,8.76
2023-01-12T12:55:43.035Z,8.76
2023-01-12T12:58:54.564Z,8.73
2023-01-12T13:02:02.904Z,8.73
2023-01-12T13:05:10.440Z,8.89
2023-01-12T13:08:24.579Z,8.93
2023-01-12T13:11:59.333Z,9.01
2023-01-12T13:15:22.982Z,9.22
2023-01-12T13:19:02.913Z,9.38
2023-01-12T13:22:44.568Z,9.47
2023-01-12T13:25:57.533Z,9.52
2023-01-12T13:29:24.493Z,9.53
2023-01-12T13:32:35.757Z,9.60
2023-01-12T13:35:40.926Z,9.72
2023-01-12T13:39:03.467Z,9.80
2023-01-12T13:42:34.427Z,9.77
2023-01-12T13:45:40.070Z,9.78
2023-01-12T13:48:52.558Z,9.80
2023-01-12T13:52:06.019Z,9.79
2023-01-12T13:55:22.808Z,9.62
2023-01-12T13:58:37.255Z,9.55
2023-01-12T14:01:46.183Z,9.42
2023-01-12T14:05:12.303Z,9.42
2023-01-12T14:08:50.558Z,9.35
2023-01-12T14:12:34.761Z,9.39
2023-01-12T14:15:59.996Z,9.35
2023-01-12T14:19:41.981Z,9.35
2023-01-12T14:22:47.390Z,9.26
2023-01-12T14:26:10.451Z,9.25
2023-01-12T14:29:15.929Z,9.21
2023-01-12T14:32:24.082Z,9.19
2023-01-12T14:35:29.405Z,9.16
2023-01-12T14:38:35.353Z,9.16
2023-01-12T14:41:59.036Z,9.17
2023-01-12T14:45:53.286Z,9.18
2023-01-12T14:49:41.311Z,9.15
2023-01-12T14:52:48.764Z,9.17
2023-01-12T14:55:54.463Z,9.19
2023-01-12T14:59:33.632Z,9.14
2023-01-12T15:02:41.629Z,9.01
2023-01-12T15:05:51.882Z,8.93
2023-01-12T15:09:00.793Z,8.92
2023-01-12T15:12:28.580Z,8.76
2023-01-12T15:15:52.865Z,8.72
2023-01-12T15:19:16.896Z,8.62
2023-01-12T15:22:47.584Z,8.58
2023-01-12T15:25:52.908Z,8.38
2023-01-12T15:28:58.556Z,8.33
2023-01-12T15:32:05.768Z,8.30
2023-01-12T15:35:24.111Z,8.10
2023-01-12T15:38:29.498Z,8.03
2023-01-12T15:41:55.042Z,7.97
2023-01-12T15:45:00.533Z,7.87
2023-01-12T15:48:07.356Z,7.73
2023-01-12T15:51:16.600Z,7.68
2023-01-12T15:54:22.123Z,7.59
2023-01-12T15:57:27.531Z,7.50
2023-01-12T16:00:32.731Z,7.43
2023-01-12T16:04:02.663Z,7.34
2023-01-12T16:07:03.973Z,7.31
2023-01-12T16:10:10.200Z,7.22
2023-01-12T16:13:15.848Z,7.15
2023-01-12T16:16:21.687Z,7.10
2023-01-12T16:19:28.722Z,7.03
2023-01-12T16:22:34.573Z,7.03
2023-01-12T16:25:40.399Z,6.91
2023-01-12T16:28:45.872Z,6.85
2023-01-12T16:31:51.567Z,6.80
2023-01-12T16:34:57.136Z,6.69
2023-01-12T16:38:02.804Z,6.59
2023-01-12T16:41:15.143Z,6.54
2023-01-12T16:44:20.620Z,6.38
2023-01-12T16:47:25.923Z,6.45
2023-01-12T16:50:31.208Z,6.45
2023-01-12T16:53:36.790Z,6.40
2023-01-12T16:56:42.911Z,6.44
2023-01-12T16:59:50.197Z,6.34
2023-01-12T17:02:57.061Z,6.38
2023-01-12T17:06:07.107Z,6.27
2023-01-12T17:09:12.845Z,6.31
2023-01-12T17:12:18.623Z,6.33
2023-01-12T17:15:23.920Z,6.18
2023-01-12T17:18:29.613Z,6.26
2023-01-12T17:21:35.328Z,6.34
2023-01-12T17:24:41.348Z,6.24
2023-01-12T17:27:47.010Z,6.18
2023-01-12T17:30:52.831Z,6.23
2023-01-12T17:33:57.928Z,6.26
2023-01-12T17:37:08.506Z,6.16
2023-01-12T17:40:14.220Z,6.12
2023-01-12T17:43:19.717Z,6.06
2023-01-12T17:46:25.581Z,5.91
2023-01-12T17:49:31.311Z,5.80
2023-01-12T17:52:36.799Z,5.78
2023-01-12T17:55:48.254Z,5.72
2023-01-12T17:58:55.753Z,5.78
2023-01-12T18:02:01.147Z,5.72
2023-01-12T18:05:07.112Z,5.62
2023-01-12T18:08:12.823Z,5.68
2023-01-12T18:11:18.812Z,5.69
2023-01-12T18:14:25.432Z,5.64
2023-01-12T18:17:31.820Z,5.49
2023-01-12T18:20:37.210Z,5.42
2023-01-12T18:23:43.731Z,5.36
2023-01-12T18:26:51.105Z,5.23
2023-01-12T18:29:56.671Z,5.18
2023-01-12T18:33:03.929Z,5.27
2023-01-12T18:36:16.434Z,5.25
2023-01-12T18:39:21.880Z,5.29
2023-01-12T18:42:45.827Z,5.18
2023-01-12T18:45:51.188Z,5.05
2023-01-12T18:48:56.628Z,5.01
2023-01-12T18:52:21.360Z,5.16
2023-01-12T18:55:26.669Z,5.11
2023-01-12T18:58:34.888Z,5.21
2023-01-12T19:01:40.620Z,5.15
2023-01-12T19:04:52.681Z,5.18
2023-01-12T19:07:58.311Z,5.24
2023-01-12T19:11:11.694Z,5.23
2023-01-12T19:14:35.211Z,4.93
2023-01-12T19:17:42.075Z,5.15
2023-01-12T19:20:47.816Z,5.08
2023-01-12T19:24:11.211Z,4.95
2023-01-12T19:27:45.944Z,5.04
2023-01-12T19:30:52.061Z,4.97
2023-01-12T19:33:57.499Z,5.01
2023-01-12T19:37:03.242Z,5.06
2023-01-12T19:40:30.085Z,5.05
2023-01-12T19:43:37.902Z,5.02
2023-01-12T19:46:43.765Z,5.00
2023-01-12T19:49:49.464Z,5.09
2023-01-12T19:52:56.042Z,5.13
2023-01-12T19:56:02.185Z,5.12
2023-01-12T19:59:07.704Z,5.07
2023-01-12T20:02:14.379Z,5.08
2023-01-12T20:05:23.077Z,5.12
2023-01-12T20:08:28.768Z,5.07
2023-01-12T20:11:34.634Z,5.11
2023-01-12T20:14:40.046Z,5.00
2023-01-12T20:17:45.638Z,5.09
2023-01-12T20:20:53.554Z,5.09
2023-01-12T20:23:58.786Z,5.02
2023-01-12T20:27:04.263Z,5.05
2023-01-12T20:30:11.307Z,5.10
2023-01-12T20:33:17.498Z,5.05
2023-01-12T20:36:23.335Z,5.08
2023-01-12T20:39:30.855Z,5.05
2023-01-12T20:42:37.780Z,5.00
2023-01-12T20:45:45.461Z,4.95
2023-01-12T20:48:52.020Z,4.88
2023-01-12T20:52:00.414Z,4.86
2023-01-12T20:55:07.211Z,4.87
2023-01-12T20:58:13.841Z,4.89
2023-01-12T21:01:20.371Z,4.88
2023-01-12T21:04:26.304Z,4.90
2023-01-12T21:07:32.526Z,4.87
2023-01-12T21:10:40.525Z,4.98
2023-01-12T21:13:47.575Z,4.98
2023-01-12T21:16:53.684Z,5.00
2023-01-12T21:20:00.097Z,5.03
2023-01-12T21:23:05.910Z,4.98
2023-01-12T21:26:12.078Z,4.93
2023-01-12T21:29:18.230Z,4.93
2023-01-12T21:32:27.469Z,4.94
2023-01-12T21:35:33.155Z,4.79
2023-01-12T21:38:39.078Z,4.79
2023-01-12T21:42:03.024Z,4.76
2023-01-12T21:45:09.684Z,4.85
2023-01-12T21:48:17.676Z,4.88
2023-01-12T21:51:23.722Z,4.80
2023-01-12T21:54:29.298Z,4.89
2023-01-12T21:57:35.365Z,4.87
2023-01-12T22:00:42.220Z,5.01
2023-01-12T22:03:47.915Z,4.98
2023-01-12T22:06:53.532Z,5.00
2023-01-12T22:10:19.325Z,5.03
2023-01-12T22:13:25.027Z,5.02
2023-01-12T22:16:30.724Z,5.03
2023-01-12T22:19:38.650Z,4.93
2023-01-12T22:22:45.453Z,4.86
2023-01-12T22:25:50.973Z,4.92
2023-01-12T22:28:56.842Z,5.12
2023-01-12T22:32:02.660Z,5.12
2023-01-12T22:35:09.102Z,4.97
2023-01-12T22:38:14.557Z,4.92
2023-01-12T22:41:22.753Z,4.95
2023-01-12T22:44:28.417Z,4.95
2023-01-12T22:47:47.250Z,4.97
2023-01-12T22:50:54.996Z,4.97
2023-01-12T22:54:00.492Z,4.99
2023-01-12T22:57:07.042Z,5.03
2023-01-12T23:00:13.270Z,5.09
2023-01-12T23:03:19.761Z,5.09
2023-01-12T23:06:26.860Z,5.07
2023-01-12T23:09:32.528Z,5.03
2023-01-12T23:12:38.068Z,5.03
2023-01-12T23:15:48.900Z,5.10
2023-01-12T23:18:55.820Z,5.09
2023-01-12T23:22:01.504Z,5.03
2023-01-12T23:25:07.370Z,4.92
2023-01-12T23:28:14.289Z,4.96
2023-01-12T23:31:21.904Z,4.99
2023-01-12T23:34:29.110Z,4.95
2023-01-12T23:37:34.349Z,5.02
2023-01-12T23:40:39.639Z,4.99
2023-01-12T23:43:46.792Z,4.88
2023-01-12T23:46:54.163Z,4.98
2023-01-12T23:49:59.734Z,5.06
2023-01-12T23:53:05.549Z,4.88
2023-01-12T23:56:14.262Z,4.94
2023-01-12T23:59:19.952Z,4.85
